Time;durP1;ratioP1;P1;durP2;ratioP2;P2;SDS_P1;SDS_P2;PMS_P1;PMS_P2;Temp;Humidity;BMP_temperature;BMP_pressure;BME280_temperature;BME280_humidity;BME280_pressure;Samples;Min_cycle;Max_cycle;Signal;HPM_P1;HPM_P2
2022/12/04 00:01:10;;;;;;;56.90;25.67;;;;;;;0.38;77.84;101419.31;5116827;28;20191;-69
2022/12/04 00:03:37;;;;;;;53.57;25.70;;;;;;;0.35;78.43;101419.34;5117133;28;20214;-69
2022/12/04 00:06:09;;;;;;;59.83;25.27;;;;;;;0.36;79.01;101428.09;5116789;28;20255;-69
2022/12/04 00:08:36;;;;;;;53.67;23.83;;;;;;;0.35;78.38;101415.84;5117257;28;20183;-69
2022/12/04 00:11:03;;;;;;;59.70;25.53;;;;;;;0.35;78.15;101419.34;5100548;28;20200;-69
2022/12/04 00:13:31;;;;;;;59.00;25.57;;;;;;;0.36;78.46;101417.56;5118722;28;20186;-69
2022/12/04 00:15:58;;;;;;;52.07;23.60;;;;;;;0.30;78.39;101420.34;5119304;28;20574;-69
2022/12/04 00:18:24;;;;;;;59.03;26.60;;;;;;;0.34;79.74;101422.03;5119417;28;20242;-69
2022/12/04 00:20:51;;;;;;;58.60;24.67;;;;;;;0.35;78.95;101415.84;5118648;28;20217;-69
2022/12/04 00:23:17;;;;;;;62.00;27.20;;;;;;;0.26;78.43;101421.28;5118666;28;20192;-68
2022/12/04 00:25:47;;;;;;;52.27;24.87;;;;;;;0.26;78.90;101413.38;5117231;28;20191;-68
2022/12/04 00:28:16;;;;;;;53.70;25.43;;;;;;;0.30;79.40;101413.28;5117246;28;20187;-69
2022/12/04 00:30:45;;;;;;;54.10;24.63;;;;;;;0.32;79.60;101411.50;5118860;28;20548;-68
2022/12/04 00:33:12;;;;;;;58.73;25.83;;;;;;;0.34;78.62;101403.59;5118638;28;20646;-68
2022/12/04 00:35:39;;;;;;;49.70;24.23;;;;;;;0.31;78.25;101411.53;5117800;28;20299;-68
2022/12/04 00:38:05;;;;;;;46.70;24.70;;;;;;;0.35;78.68;101403.53;5116857;28;20190;-68
2022/12/04 00:40:31;;;;;;;47.47;25.23;;;;;;;0.35;78.52;101407.94;5116442;28;20193;-68
2022/12/04 00:42:58;;;;;;;63.60;26.03;;;;;;;0.34;79.84;101404.44;5116575;28;20278;-68
2022/12/04 00:45:24;;;;;;;52.97;25.43;;;;;;;0.40;79.15;101399.03;5115722;28;20541;-68
2022/12/04 00:47:50;;;;;;;56.43;25.07;;;;;;;0.38;78.33;101399.97;5115249;28;20216;-69
2022/12/04 00:50:17;;;;;;;56.50;25.20;;;;;;;0.40;79.20;101395.53;5115696;28;20181;-69
2022/12/04 00:52:43;;;;;;;60.77;25.23;;;;;;;0.36;79.15;101397.38;5115610;28;20669;-69
2022/12/04 00:55:10;;;;;;;60.17;27.63;;;;;;;0.42;78.60;101401.66;5115708;28;20217;-69
2022/12/04 00:57:36;;;;;;;62.53;24.10;;;;;;;0.42;78.96;101404.28;5115682;28;20650;-69
2022/12/04 01:00:04;;;;;;;48.37;24.17;;;;;;;0.37;78.97;101399.09;5115491;28;20190;-69
2022/12/04 01:02:31;;;;;;;54.47;26.07;;;;;;;0.35;78.96;101400.03;5115356;28;20188;-69
2022/12/04 01:05:00;;;;;;;61.07;24.70;;;;;;;0.37;78.55;101385.94;5115264;28;20254;-69
2022/12/04 01:07:26;;;;;;;59.23;25.57;;;;;;;0.39;78.59;101393.81;5115546;28;20205;-68
2022/12/04 01:09:52;;;;;;;57.43;25.37;;;;;;;0.37;79.59;101385.94;5115812;28;20542;-68
2022/12/04 01:12:19;;;;;;;61.10;25.43;;;;;;;0.41;79.04;101392.91;5115439;28;20218;-68
2022/12/04 01:14:46;;;;;;;57.13;24.50;;;;;;;0.33;80.15;101388.66;5115285;28;20204;-69
2022/12/04 01:17:13;;;;;;;48.70;24.13;;;;;;;0.31;79.92;101390.44;5115193;28;20195;-68
2022/12/04 01:19:39;;;;;;;56.47;26.17;;;;;;;0.37;79.95;101385.94;5115319;28;20196;-69
2022/12/04 01:22:05;;;;;;;53.67;25.53;;;;;;;0.42;79.29;101399.88;5115162;28;20197;-69
2022/12/04 01:24:32;;;;;;;47.40;23.90;;;;;;;0.25;79.42;101404.59;5115412;28;20207;-69
2022/12/04 01:26:58;;;;;;;50.33;23.93;;;;;;;0.29;79.63;101395.75;5114931;28;20193;-68
2022/12/04 01:29:24;;;;;;;60.27;26.23;;;;;;;0.32;80.75;101393.06;5114833;28;20192;-68
2022/12/04 01:31:51;;;;;;;57.43;24.47;;;;;;;0.30;80.66;101391.34;5114756;28;20191;-69
2022/12/04 01:34:17;;;;;;;55.70;25.60;;;;;;;0.37;80.44;101393.84;5114700;28;20202;-68
2022/12/04 01:36:44;;;;;;;55.37;24.43;;;;;;;0.39;79.78;101388.56;5114907;28;20197;-68
2022/12/04 01:39:10;;;;;;;53.70;25.17;;;;;;;0.28;80.02;101403.69;5114715;28;20546;-68
2022/12/04 01:41:37;;;;;;;54.17;25.17;;;;;;;0.44;80.25;101397.22;5114606;28;20190;-69
2022/12/04 01:44:14;;;;;;;56.07;23.33;;;;;;;0.40;79.84;101401.69;5114508;28;20211;-69
2022/12/04 01:46:44;;;;;;;56.80;25.13;;;;;;;0.36;80.38;101397.38;5114603;28;20188;-69
2022/12/04 01:49:18;;;;;;;66.17;23.90;;;;;;;0.35;80.69;101400.91;5114435;28;20661;-69
2022/12/04 01:51:50;;;;;;;54.70;25.93;;;;;;;0.35;80.89;101400.03;5114415;28;20187;-68
2022/12/04 01:54:27;;;;;;;60.53;25.70;;;;;;;0.42;79.79;101399.88;5114942;28;20207;-69
2022/12/04 01:57:15;;;;;;;55.13;23.47;;;;;;;0.42;79.62;101399.88;5114264;28;20203;-69
2022/12/04 01:59:47;;;;;;;62.43;24.77;;;;;;;0.42;79.55;101402.53;5114084;28;20176;-68
2022/12/04 02:02:18;;;;;;;48.77;23.57;;;;;;;0.49;79.64;101397.16;5114562;28;20172;-68
2022/12/04 02:04:45;;;;;;;61.10;25.50;;;;;;;0.46;79.44;101398.06;5114113;28;20220;-68
2022/12/04 02:07:11;;;;;;;54.43;22.83;;;;;;;0.48;79.77;101393.66;5114205;28;20195;-68
2022/12/04 02:09:40;;;;;;;48.83;22.70;;;;;;;0.46;79.65;101392.81;5114032;28;20650;-68
2022/12/04 02:12:34;;;;;;;50.20;23.37;;;;;;;0.44;80.40;101394.59;5114072;28;20196;-68
2022/12/04 02:15:26;;;;;;;61.70;25.53;;;;;;;0.47;80.39;101381.34;5114257;28;20215;-68
2022/12/04 02:18:11;;;;;;;57.53;24.17;;;;;;;0.47;80.34;101375.22;5114546;28;20599;-68
2022/12/04 02:20:47;;;;;;;60.93;25.20;;;;;;;0.42;79.71;101370.03;5114399;28;20568;-69
2022/12/04 02:23:41;;;;;;;55.63;25.30;;;;;;;0.40;80.36;101374.47;5114170;28;20176;-69
2022/12/04 02:26:14;;;;;;;53.83;23.83;;;;;;;0.33;80.92;101364.94;5114759;28;20554;-68
2022/12/04 02:28:46;;;;;;;51.73;23.30;;;;;;;0.29;80.96;101369.41;5114137;28;20648;-68
2022/12/04 02:31:20;;;;;;;56.17;23.97;;;;;;;0.30;80.18;101372.91;5114181;28;20176;-68
2022/12/04 02:34:08;;;;;;;51.37;23.27;;;;;;;0.38;80.11;101369.25;5114071;28;20221;-68
2022/12/04 02:36:46;;;;;;;60.23;22.93;;;;;;;0.36;80.31;101373.69;5114366;28;20207;-69
2022/12/04 02:39:24;;;;;;;50.53;23.33;;;;;;;0.45;79.93;101374.38;5114112;28;20180;-68
2022/12/04 02:41:58;;;;;;;41.83;22.77;;;;;;;0.37;80.93;101372.75;5114334;28;20182;-68
2022/12/04 02:45:00;;;;;;;54.93;24.13;;;;;;;0.43;80.38;101379.66;5113873;28;20212;-68
2022/12/04 02:47:26;;;;;;;57.63;25.47;;;;;;;0.47;80.11;101369.94;5075289;28;20193;-69
2022/12/04 02:50:04;;;;;;;52.00;23.93;;;;;;;0.42;80.09;101365.63;5114238;28;20231;-68
2022/12/04 02:52:35;;;;;;;55.07;24.17;;;;;;;0.42;79.67;101362.13;5113976;28;20180;-68
2022/12/04 02:55:06;;;;;;;57.80;25.30;;;;;;;0.39;80.08;101357.81;5114052;28;20213;-68
2022/12/04 02:57:39;;;;;;;58.47;24.50;;;;;;;0.38;80.71;101363.09;5113658;28;20177;-68
2022/12/04 03:00:07;;;;;;;58.57;25.97;;;;;;;0.37;80.29;101364.00;5114185;28;20180;-68
2022/12/04 03:02:39;;;;;;;44.33;23.17;;;;;;;0.36;81.07;101372.78;5113748;28;20196;-68
2022/12/04 03:05:14;;;;;;;47.20;21.93;;;;;;;0.32;81.24;101369.34;5113903;28;20572;-68
2022/12/04 03:07:51;;;;;;;49.93;23.17;;;;;;;0.37;80.62;101370.13;5114137;28;20172;-68
2022/12/04 03:10:23;;;;;;;44.10;22.77;;;;;;;0.37;80.58;101367.50;5116449;28;20230;-68
2022/12/04 03:12:55;;;;;;;57.57;23.73;;;;;;;0.37;80.53;101362.22;5118395;28;20188;-68
2022/12/04 03:15:30;;;;;;;47.27;23.00;;;;;;;0.43;81.25;101371.75;5117832;28;20674;-68
2022/12/04 03:18:01;;;;;;;48.43;22.57;;;;;;;0.38;80.92;101376.25;5117474;28;20184;-69
2022/12/04 03:20:31;;;;;;;61.07;23.93;;;;;;;0.42;81.07;101365.63;5117701;28;20201;-69
2022/12/04 03:23:08;;;;;;;50.73;23.40;;;;;;;0.47;79.87;101369.94;5117664;28;20177;-69
2022/12/04 03:25:40;;;;;;;52.40;24.13;;;;;;;0.43;80.35;101369.13;5117218;28;20212;-68
2022/12/04 03:28:21;;;;;;;49.03;22.87;;;;;;;0.44;79.84;101368.25;5117518;28;20185;-68
2022/12/04 03:30:56;;;;;;;51.33;22.00;;;;;;;0.39;80.11;101376.25;5117174;28;20177;-68
2022/12/04 03:33:30;;;;;;;41.30;21.80;;;;;;;0.43;79.84;101369.13;5117295;28;20639;-68
2022/12/04 03:36:19;;;;;;;51.43;24.17;;;;;;;0.44;81.09;101373.53;5117338;28;20215;-68
2022/12/04 03:38:57;;;;;;;46.77;22.43;;;;;;;0.52;79.89;101376.84;5117334;28;20557;-68
2022/12/04 03:41:31;;;;;;;40.77;21.70;;;;;;;0.53;80.37;101378.63;5117262;28;20165;-68
2022/12/04 03:44:11;;;;;;;46.33;21.67;;;;;;;0.49;80.58;101379.56;5117140;28;20216;-68
2022/12/04 03:46:47;;;;;;;47.33;21.47;;;;;;;0.43;80.52;101377.03;5116863;28;20623;-68
2022/12/04 03:49:42;;;;;;;43.30;21.93;;;;;;;0.47;80.50;101377.84;5117357;28;20191;-68
2022/12/04 03:52:20;;;;;;;38.17;21.10;;;;;;;0.53;80.29;101380.38;5099377;28;20209;-68
2022/12/04 03:54:58;;;;;;;41.93;21.23;;;;;;;0.54;80.62;101375.06;5117406;28;20549;-68
2022/12/04 03:57:31;;;;;;;48.20;21.37;;;;;;;0.57;80.08;101369.72;5117167;28;20192;-68
2022/12/04 04:00:04;;;;;;;39.37;21.47;;;;;;;0.49;79.36;101365.53;5117184;28;20180;-68
2022/12/04 04:02:35;;;;;;;40.93;21.03;;;;;;;0.51;79.61;101371.63;5116879;28;20181;-68
2022/12/04 04:05:04;;;;;;;48.30;20.67;;;;;;;0.56;79.98;101373.28;5116487;28;20205;-68
2022/12/04 04:07:54;;;;;;;46.60;21.07;;;;;;;0.52;78.87;101365.47;5116756;28;20170;-68
2022/12/04 04:10:23;;;;;;;40.50;20.27;;;;;;;0.42;80.43;101364.78;5116396;28;20200;-68
2022/12/04 04:24:57;;;;;;;40.27;21.60;;;;;;;0.47;80.16;101376.09;5116406;28;20569;-68
2022/12/04 04:27:23;;;;;;;43.83;19.87;;;;;;;0.48;79.80;101374.31;5013693;28;20195;-68
2022/12/04 04:29:51;;;;;;;35.67;19.67;;;;;;;0.45;80.16;101369.13;5013910;28;20656;-68
2022/12/04 04:32:29;;;;;;;42.97;19.90;;;;;;;0.55;80.04;101376.81;5065477;28;20204;-68
2022/12/04 04:35:04;;;;;;;36.07;19.40;;;;;;;0.54;79.58;101375.06;5116008;28;20708;-68
2022/12/04 04:37:51;;;;;;;37.13;20.10;;;;;;;0.50;79.39;101386.56;5115823;28;20193;-68
2022/12/04 04:40:25;;;;;;;37.30;20.00;;;;;;;0.46;80.34;101382.28;5115849;28;20184;-68
2022/12/04 04:43:22;;;;;;;45.43;20.87;;;;;;;0.54;80.05;101377.69;5116066;28;20184;-68
2022/12/04 04:45:51;;;;;;;42.13;20.40;;;;;;;0.54;79.57;101380.34;5113882;28;20204;-68
2022/12/04 04:48:22;;;;;;;41.63;20.80;;;;;;;0.62;79.39;101377.53;5115678;28;20195;-68
2022/12/04 04:50:49;;;;;;;41.17;19.93;;;;;;;0.57;78.81;101377.63;5116224;28;20170;-68
2022/12/04 04:53:20;;;;;;;40.33;20.00;;;;;;;0.51;80.05;101380.41;5115459;28;20207;-68
2022/12/04 04:55:47;;;;;;;39.50;20.63;;;;;;;0.49;80.07;101376.94;5115460;28;20195;-68
2022/12/04 04:58:16;;;;;;;37.33;20.83;;;;;;;0.44;80.41;101376.16;5115737;28;20181;-68
2022/12/04 05:00:53;;;;;;;41.47;20.83;;;;;;;0.55;78.96;101371.56;5115476;28;20192;-68
2022/12/04 05:03:19;;;;;;;36.63;18.53;;;;;;;0.57;79.61;101366.22;5115944;28;20181;-68
2022/12/04 05:05:46;;;;;;;39.80;20.47;;;;;;;0.57;79.58;101363.59;5115332;28;20188;-68
2022/12/04 05:08:12;;;;;;;36.10;19.27;;;;;;;0.50;79.53;101361.97;5115564;28;20669;-68
2022/12/04 05:10:39;;;;;;;43.47;20.70;;;;;;;0.53;79.42;101367.22;5116050;28;20185;-68
2022/12/04 05:13:05;;;;;;;41.90;20.23;;;;;;;0.49;78.94;101370.78;5115441;28;20651;-68
2022/12/04 05:15:31;;;;;;;39.93;19.57;;;;;;;0.61;80.05;101362.63;5115023;28;20572;-68
2022/12/04 05:17:58;;;;;;;46.93;20.27;;;;;;;0.66;79.31;101363.41;5115348;28;20181;-68
2022/12/04 05:20:24;;;;;;;36.40;19.30;;;;;;;0.61;79.09;101365.28;5115163;28;20655;-68
2022/12/04 05:22:50;;;;;;;38.77;20.30;;;;;;;0.58;78.68;101362.72;5114977;28;20594;-68
2022/12/04 05:25:17;;;;;;;33.93;20.77;;;;;;;0.55;80.03;101354.84;5114801;28;20686;-68
2022/12/04 05:27:43;;;;;;;39.33;19.43;;;;;;;0.53;78.51;101362.81;5114892;28;20192;-68
2022/12/04 05:30:10;;;;;;;43.50;21.80;;;;;;;0.63;79.11;101372.25;5114826;28;20189;-68
2022/12/04 05:32:37;;;;;;;33.03;19.07;;;;;;;0.51;79.63;101369.00;5114758;28;20195;-68
2022/12/04 05:35:04;;;;;;;34.17;19.03;;;;;;;0.62;78.96;101356.47;5114930;28;20211;-68
2022/12/04 05:37:38;;;;;;;37.93;20.57;;;;;;;0.62;79.26;101359.09;5114920;28;20660;-68
2022/12/04 05:40:06;;;;;;;38.47;20.80;;;;;;;0.60;79.49;101358.28;5114647;28;20650;-68
2022/12/04 05:42:33;;;;;;;42.27;21.53;;;;;;;0.57;79.03;101364.47;5114859;28;20196;-68
2022/12/04 05:44:59;;;;;;;45.20;21.63;;;;;;;0.66;78.79;101357.28;5114485;28;20215;-68
2022/12/04 05:47:26;;;;;;;38.70;19.83;;;;;;;0.60;78.42;101360.91;5114525;28;20182;-68
2022/12/04 05:49:52;;;;;;;40.70;19.20;;;;;;;0.57;78.56;101353.91;5114706;28;20196;-68
2022/12/04 05:52:19;;;;;;;40.63;21.47;;;;;;;0.61;79.40;101350.31;5114687;28;20197;-68
2022/12/04 05:54:45;;;;;;;34.20;20.10;;;;;;;0.58;78.45;101354.81;5114607;28;20212;-68
2022/12/04 05:57:12;;;;;;;33.47;20.17;;;;;;;0.61;78.61;101355.59;5114509;28;20201;-68
2022/12/04 05:59:38;;;;;;;37.03;19.77;;;;;;;0.54;79.16;101353.97;5114760;28;20186;-68
2022/12/04 06:02:04;;;;;;;39.20;20.27;;;;;;;0.60;78.37;101351.25;5114445;28;20675;-68
2022/12/04 06:04:31;;;;;;;37.13;19.77;;;;;;;0.53;79.60;101348.78;5114030;28;20712;-68
2022/12/04 06:06:57;;;;;;;37.10;18.60;;;;;;;0.56;78.56;101349.56;5114040;28;20192;-68
2022/12/04 06:09:23;;;;;;;42.73;19.00;;;;;;;0.61;78.34;101352.97;5114635;28;20539;-68
2022/12/04 06:11:50;;;;;;;34.20;17.97;;;;;;;0.64;78.38;101349.41;5114352;28;20673;-68
2022/12/04 06:14:16;;;;;;;30.43;18.20;;;;;;;0.58;78.59;101345.13;5114047;28;20694;-68
2022/12/04 06:16:44;;;;;;;37.50;19.40;;;;;;;0.48;78.68;101353.22;5114240;28;20205;-68
2022/12/04 06:19:17;;;;;;;30.80;18.70;;;;;;;0.57;79.38;101350.41;5114797;28;20185;-68
2022/12/04 06:21:45;;;;;;;32.60;18.97;;;;;;;0.54;79.45;101353.97;5113910;28;20592;-68
2022/12/04 06:24:16;;;;;;;44.37;20.27;;;;;;;0.69;78.31;101354.56;5114027;28;20216;-69
2022/12/04 06:26:42;;;;;;;31.97;19.70;;;;;;;0.57;78.49;101351.28;5114285;28;20177;-69
2022/12/04 06:29:29;;;;;;;33.00;20.07;;;;;;;0.55;78.65;101357.47;5113907;28;20234;-69
2022/12/04 06:31:55;;;;;;;37.57;21.73;;;;;;;0.62;79.34;101356.47;5113817;28;20185;-68
2022/12/04 06:34:22;;;;;;;32.40;19.60;;;;;;;0.53;79.30;101354.91;5114086;28;20205;-68
2022/12/04 06:36:48;;;;;;;36.20;20.23;;;;;;;0.58;78.90;101352.16;5113652;28;20212;-68
2022/12/04 06:39:14;;;;;;;35.73;20.40;;;;;;;0.51;79.47;101363.75;5114033;28;20203;-68
2022/12/04 06:41:46;;;;;;;36.17;22.13;;;;;;;0.52;79.08;101362.81;5114023;28;20207;-68
2022/12/04 06:44:16;;;;;;;40.47;21.00;;;;;;;0.55;78.44;101353.09;5115731;28;20580;-68
2022/12/04 06:46:42;;;;;;;40.17;22.37;;;;;;;0.49;78.96;101352.34;5120480;28;20527;-68
2022/12/04 06:49:13;;;;;;;43.70;23.17;;;;;;;0.47;78.18;101352.38;5120840;28;20178;-68
2022/12/04 06:51:39;;;;;;;34.67;21.60;;;;;;;0.48;78.24;101355.88;5120489;28;20183;-68
2022/12/04 06:54:06;;;;;;;44.70;22.70;;;;;;;0.59;78.95;101359.16;5120389;28;20220;-68
2022/12/04 06:56:32;;;;;;;44.67;22.00;;;;;;;0.59;77.92;101357.38;5120327;28;20204;-68
2022/12/04 06:59:01;;;;;;;38.40;21.20;;;;;;;0.54;77.86;101353.97;5120454;28;20548;-68
2022/12/04 07:01:30;;;;;;;41.63;22.07;;;;;;;0.60;79.22;101360.91;5120702;28;20180;-68
2022/12/04 07:03:57;;;;;;;36.43;21.90;;;;;;;0.52;78.20;101366.31;5120695;28;20205;-68
2022/12/04 07:06:29;;;;;;;34.10;20.73;;;;;;;0.51;79.11;101363.75;5120594;28;20188;-68
2022/12/04 07:09:12;;;;;;;36.73;20.47;;;;;;;0.53;79.46;101368.06;5120902;28;20507;-68
2022/12/04 07:11:40;;;;;;;29.23;19.83;;;;;;;0.56;78.86;101368.00;5120624;28;20180;-68
2022/12/04 07:14:06;;;;;;;31.37;18.40;;;;;;;0.46;78.88;101365.59;5120733;28;20213;-68
2022/12/04 07:16:33;;;;;;;34.57;19.43;;;;;;;0.46;79.07;101368.22;5120102;28;20211;-68
2022/12/04 07:19:06;;;;;;;37.43;19.37;;;;;;;0.39;79.88;101363.06;5120834;28;20326;-68
2022/12/04 07:21:33;;;;;;;31.67;17.40;;;;;;;0.42;78.81;101363.00;5120213;28;20204;-68
2022/12/04 07:24:00;;;;;;;28.50;19.13;;;;;;;0.50;79.88;101368.13;5120335;28;20244;-68
2022/12/04 07:26:29;;;;;;;32.37;18.50;;;;;;;0.57;79.96;101364.47;5120377;28;20189;-68
2022/12/04 07:28:58;;;;;;;28.83;18.83;;;;;;;0.64;79.43;101365.19;5120461;28;20177;-68
2022/12/04 07:31:26;;;;;;;28.00;17.93;;;;;;;0.56;79.59;101365.38;5120146;28;20554;-68
2022/12/04 07:33:54;;;;;;;36.63;20.03;;;;;;;0.56;79.17;101365.38;5120034;28;20246;-68
2022/12/04 07:36:22;;;;;;;30.83;18.53;;;;;;;0.49;79.28;101374.28;5119970;28;20646;-68
2022/12/04 07:38:48;;;;;;;29.47;17.77;;;;;;;0.51;80.16;101382.19;5120243;28;20185;-69
2022/12/04 07:41:16;;;;;;;32.53;18.37;;;;;;;0.49;79.62;101376.94;5120009;28;20242;-68
2022/12/04 07:43:43;;;;;;;28.20;18.10;;;;;;;0.54;79.19;101382.97;5119914;28;20201;-68
2022/12/04 07:46:12;;;;;;;28.93;17.90;;;;;;;0.49;79.29;101379.56;5120219;28;20184;-68
2022/12/04 07:48:39;;;;;;;33.47;17.57;;;;;;;0.54;79.91;101387.38;5119959;28;20195;-68
2022/12/04 07:51:08;;;;;;;26.70;18.80;;;;;;;0.57;79.55;101388.16;5120205;28;20531;-69
2022/12/04 07:53:35;;;;;;;31.10;18.37;;;;;;;0.62;79.27;101381.06;5119815;27;20217;-69
2022/12/04 07:56:03;;;;;;;33.57;17.40;;;;;;;0.62;78.74;101388.09;5117599;28;20177;-68
2022/12/04 07:58:30;;;;;;;32.63;18.90;;;;;;;0.58;79.62;101381.16;5116603;28;20227;-68
2022/12/04 08:01:14;;;;;;;30.23;18.23;;;;;;;0.56;79.25;101378.53;5116609;28;20185;-68
2022/12/04 08:03:42;;;;;;;33.27;17.80;;;;;;;0.58;79.24;101382.03;5116701;28;20208;-69
2022/12/04 08:06:20;;;;;;;30.90;17.63;;;;;;;0.63;79.06;101384.56;5116895;28;20240;-69
2022/12/04 08:08:48;;;;;;;40.13;18.13;;;;;;;0.61;78.87;101384.59;5097956;28;20188;-69
2022/12/04 08:11:18;;;;;;;27.80;18.10;;;;;;;0.65;79.62;101390.69;5117014;28;20238;-69
2022/12/04 08:13:44;;;;;;;25.63;17.87;;;;;;;0.68;78.56;101387.13;5116584;28;20213;-69
2022/12/04 08:16:14;;;;;;;31.10;17.40;;;;;;;0.71;78.52;101385.28;5116400;28;20235;-68
2022/12/04 08:18:47;;;;;;;35.20;19.33;;;;;;;0.69;79.56;101389.69;5116239;28;20244;-68
2022/12/04 08:21:19;;;;;;;29.10;18.17;;;;;;;0.69;78.74;101399.38;5116365;28;20739;-69
2022/12/04 08:23:47;;;;;;;25.80;17.60;;;;;;;0.64;79.37;101405.59;5116664;28;20223;-69
2022/12/04 08:26:13;;;;;;;27.33;17.67;;;;;;;0.71;79.67;101398.44;5116392;28;20190;-69
2022/12/04 08:28:40;;;;;;;25.60;17.93;;;;;;;0.74;78.67;101400.16;5116215;28;20177;-69
2022/12/04 08:31:13;;;;;;;32.30;18.50;;;;;;;0.75;78.50;101394.00;5116106;28;20181;-69
2022/12/04 08:33:40;;;;;;;32.30;19.20;;;;;;;0.78;79.38;101394.78;5116628;28;20209;-69
2022/12/04 08:36:09;;;;;;;30.33;17.80;;;;;;;0.74;78.53;101385.22;5115972;28;20191;-69
2022/12/04 08:38:36;;;;;;;28.93;16.60;;;;;;;0.82;78.21;101385.94;5098330;28;20212;-70
2022/12/04 08:41:05;;;;;;;34.83;19.10;;;;;;;0.82;78.97;101391.19;5115837;28;20685;-69
2022/12/04 08:43:32;;;;;;;28.20;17.07;;;;;;;0.75;78.77;101388.72;5115694;28;20201;-69
2022/12/04 08:46:04;;;;;;;25.03;16.67;;;;;;;0.91;78.34;101390.16;5115796;28;20177;-69
2022/12/04 08:48:31;;;;;;;27.27;17.63;;;;;;;0.85;78.49;101395.53;5116067;28;20215;-68
2022/12/04 08:51:00;;;;;;;27.63;17.60;;;;;;;0.93;78.69;101390.09;5115928;28;20263;-69
2022/12/04 08:53:31;;;;;;;35.17;18.70;;;;;;;0.87;78.84;101390.25;5098104;28;20165;-68
2022/12/04 08:56:00;;;;;;;28.53;18.47;;;;;;;0.92;78.98;101394.50;5097387;28;20277;-69
2022/12/04 08:58:26;;;;;;;34.53;17.10;;;;;;;1.00;78.40;101402.25;5115476;28;20215;-68
2022/12/04 09:00:52;;;;;;;29.57;18.13;;;;;;;0.96;79.13;101398.81;5115816;28;20166;-69
2022/12/04 09:03:20;;;;;;;26.13;17.50;;;;;;;0.95;78.09;101397.06;5115620;28;20593;-69
2022/12/04 09:05:58;;;;;;;33.93;19.17;;;;;;;0.91;78.72;101394.53;5115449;28;20260;-68
2022/12/04 09:08:25;;;;;;;31.23;16.27;;;;;;;0.93;79.27;101390.09;5115249;28;20542;-69
2022/12/04 09:10:51;;;;;;;30.73;18.03;;;;;;;0.90;78.80;101395.44;5115214;28;20196;-69
2022/12/04 09:13:18;;;;;;;31.77;17.43;;;;;;;0.91;78.57;101398.06;5115457;28;20196;-68
2022/12/04 09:15:45;;;;;;;30.17;18.97;;;;;;;0.92;78.50;101391.88;5097134;28;20181;-68
2022/12/04 09:18:12;;;;;;;31.33;17.70;;;;;;;0.96;79.08;101393.56;5115290;28;20243;-68
2022/12/04 09:20:38;;;;;;;25.57;17.70;;;;;;;0.90;78.89;101400.72;5114920;28;20201;-69
2022/12/04 09:23:04;;;;;;;32.23;18.10;;;;;;;0.98;78.49;101397.03;5114988;28;20185;-69
2022/12/04 09:25:37;;;;;;;32.23;18.47;;;;;;;0.97;79.06;101395.28;5115396;28;20217;-69
2022/12/04 09:28:03;;;;;;;28.03;17.27;;;;;;;0.99;79.06;101398.75;5114924;28;20515;-69
2022/12/04 09:30:29;;;;;;;31.97;19.13;;;;;;;1.09;78.57;101398.56;5114827;28;20182;-69
2022/12/04 09:32:56;;;;;;;28.90;18.57;;;;;;;1.09;78.68;101395.91;5096772;28;20199;-69
2022/12/04 09:35:22;;;;;;;32.40;20.27;;;;;;;1.12;78.51;101406.41;5114609;28;20208;-69
2022/12/04 09:37:49;;;;;;;35.67;19.60;;;;;;;1.10;78.27;101398.50;5114651;28;20215;-69
2022/12/04 09:40:36;;;;;;;35.53;19.30;;;;;;;1.11;78.93;101402.03;5114980;28;20181;-69
2022/12/04 09:43:15;;;;;;;32.80;19.37;;;;;;;1.11;78.62;101396.75;5114857;28;20181;-69
2022/12/04 09:45:48;;;;;;;28.27;18.37;;;;;;;1.05;78.25;101393.34;5114619;28;20182;-69
2022/12/04 09:48:17;;;;;;;30.80;17.63;;;;;;;0.99;78.44;101389.97;5114794;28;20172;-69
2022/12/04 09:50:45;;;;;;;30.53;17.90;;;;;;;1.05;78.94;101396.00;5114564;28;20189;-69
2022/12/04 09:53:21;;;;;;;38.83;19.17;;;;;;;1.05;78.55;101384.56;5114745;28;20176;-69
2022/12/04 09:55:56;;;;;;;40.23;19.53;;;;;;;1.06;78.97;101391.59;5114916;28;20180;-69
2022/12/04 09:58:31;;;;;;;36.33;19.67;;;;;;;1.04;78.61;101385.47;5114549;28;20212;-69
2022/12/04 10:01:02;;;;;;;31.77;18.87;;;;;;;1.05;78.77;101389.81;5114876;28;20173;-68
2022/12/04 10:03:30;;;;;;;32.97;18.90;;;;;;;1.09;79.43;101394.16;5114574;28;20593;-68
2022/12/04 10:06:18;;;;;;;35.67;18.77;;;;;;;1.17;78.88;101380.78;5114178;28;20189;-69
2022/12/04 10:09:05;;;;;;;30.30;18.73;;;;;;;1.04;78.59;101377.56;5114454;28;20169;-68
2022/12/04 10:11:51;;;;;;;32.37;19.27;;;;;;;1.10;79.01;101379.19;5114110;28;20564;-68
2022/12/04 10:14:46;;;;;;;31.90;18.33;;;;;;;1.16;79.04;101381.69;5114648;28;20201;-68
2022/12/04 10:17:25;;;;;;;37.43;19.43;;;;;;;1.16;79.00;101387.84;5114529;28;20197;-68
2022/12/04 10:20:04;;;;;;;37.50;19.10;;;;;;;1.10;79.52;101387.94;5113458;28;20165;-68
2022/12/04 10:22:55;;;;;;;33.53;18.63;;;;;;;1.18;79.04;101390.44;5113961;28;20181;-68
2022/12/04 10:25:23;;;;;;;34.37;19.10;;;;;;;1.15;79.09;101390.50;5113933;28;20555;-68
2022/12/04 10:27:54;;;;;;;33.23;19.30;;;;;;;1.24;79.53;101379.75;5113858;28;20184;-69
2022/12/04 10:30:25;;;;;;;37.50;18.90;;;;;;;1.28;78.73;101387.56;5114209;28;20196;-69
2022/12/04 10:33:33;;;;;;;34.70;19.53;;;;;;;1.26;79.48;101394.63;5114116;28;20173;-69
2022/12/04 10:36:00;;;;;;;32.93;17.57;;;;;;;1.18;79.75;101390.44;5100690;28;20276;-68
2022/12/04 10:38:41;;;;;;;31.93;18.50;;;;;;;1.27;79.42;101393.75;5113941;28;20205;-68
2022/12/04 10:41:28;;;;;;;39.93;20.37;;;;;;;1.30;79.42;101390.16;5113984;28;20619;-69
2022/12/04 10:43:54;;;;;;;34.87;19.43;;;;;;;1.30;79.46;101389.31;5113621;28;20197;-69
2022/12/04 10:46:25;;;;;;;36.10;18.77;;;;;;;1.33;78.91;101390.09;5113642;28;20193;-69
2022/12/04 10:49:01;;;;;;;32.50;18.03;;;;;;;1.33;79.70;101376.91;5113992;28;20173;-69
2022/12/04 10:51:38;;;;;;;27.07;18.73;;;;;;;1.36;79.21;101363.63;5113966;28;20246;-69
2022/12/04 10:54:25;;;;;;;31.57;18.47;;;;;;;1.32;79.94;101369.00;5113557;28;20215;-69
2022/12/04 10:57:10;;;;;;;35.63;18.50;;;;;;;1.35;79.65;101363.69;5113893;28;20185;-68
2022/12/04 10:59:49;;;;;;;35.27;19.63;;;;;;;1.40;79.81;101352.09;5113909;28;20197;-69
2022/12/04 11:02:21;;;;;;;31.63;20.03;;;;;;;1.44;79.59;101350.28;5113838;28;20181;-69
2022/12/04 11:04:55;;;;;;;33.87;19.97;;;;;;;1.42;80.11;101355.56;5113733;28;20201;-68
2022/12/04 11:07:25;;;;;;;38.40;19.53;;;;;;;1.43;79.99;101351.16;5114142;28;20177;-69
2022/12/04 11:10:16;;;;;;;32.07;18.57;;;;;;;1.57;79.29;101354.34;5113444;28;20185;-69
2022/12/04 11:13:04;;;;;;;34.10;18.50;;;;;;;1.55;79.67;101348.22;5114038;28;20174;-69
2022/12/04 11:15:40;;;;;;;42.57;19.27;;;;;;;1.53;79.49;101343.88;5113408;28;20228;-69
2022/12/04 11:18:25;;;;;;;32.40;18.43;;;;;;;1.56;79.22;101338.56;5113352;28;20189;-69
2022/12/04 11:21:13;;;;;;;36.70;19.23;;;;;;;1.57;79.24;101335.00;5113639;28;20266;-69
2022/12/04 11:23:43;;;;;;;33.53;18.20;;;;;;;1.67;79.05;101326.78;5113442;28;20216;-69
2022/12/04 11:26:10;;;;;;;28.90;19.07;;;;;;;1.67;78.74;101318.00;5113285;28;20185;-69
2022/12/04 11:28:39;;;;;;;32.37;19.33;;;;;;;1.67;79.11;101318.00;5113240;28;20182;-69
2022/12/04 11:31:15;;;;;;;34.03;18.93;;;;;;;1.63;78.74;101319.03;5116175;28;20633;-69
2022/12/04 11:33:52;;;;;;;34.00;18.57;;;;;;;1.77;78.93;101323.91;5117361;28;20574;-69
2022/12/04 11:36:30;;;;;;;29.17;18.07;;;;;;;1.63;79.00;101319.88;5117699;28;20206;-69
2022/12/04 11:39:10;;;;;;;31.30;18.53;;;;;;;1.67;79.22;101315.38;5117252;28;20193;-69
2022/12/04 11:41:37;;;;;;;36.93;19.23;;;;;;;1.67;78.89;101310.94;5117022;28;20181;-69
2022/12/04 11:44:06;;;;;;;29.63;18.73;;;;;;;1.76;79.00;101311.63;5116946;28;20211;-68
2022/12/04 11:46:33;;;;;;;28.70;19.37;;;;;;;1.74;79.01;101306.38;5116882;28;20659;-68
2022/12/04 11:49:02;;;;;;;34.40;19.10;;;;;;;1.68;79.12;101301.28;5116834;28;20220;-68